Time;durP1;ratioP1;P1;durP2;ratioP2;P2;SDS_P1;SDS_P2;PMS_P1;PMS_P2;Temp;Humidity;BMP_temperature;BMP_pressure;BME280_temperature;BME280_humidity;BME280_pressure;Samples;Min_cycle;Max_cycle;Signal;HPM_P1;HPM_P2
2023/01/25 00:00:10;;;;;;;316.95;72.35;;;;;;;2.09;99.84;101016.06;339212;29;1815;-76
2023/01/25 00:00:20;;;;;;;315.03;69.97;;;;;;;2.07;100.00;101008.31;337448;29;1459;-76
2023/01/25 00:00:31;;;;;;;317.00;70.38;;;;;;;2.08;99.88;101019.50;336784;29;826;-76
2023/01/25 00:00:41;;;;;;;318.67;71.23;;;;;;;2.07;100.00;101016.03;335231;29;1440;-76
2023/01/25 00:00:51;;;;;;;321.70;71.65;;;;;;;2.10;99.92;101012.66;336533;29;1234;-75
2023/01/25 00:01:03;;;;;;;321.80;72.10;;;;;;;2.12;99.86;101016.13;335459;29;928;-76
2023/01/25 00:01:14;;;;;;;320.02;73.82;;;;;;;2.15;100.00;101021.34;335990;29;1694;-76
2023/01/25 00:01:24;;;;;;;320.92;74.63;;;;;;;2.15;99.92;101022.19;334225;29;2158;-76
2023/01/25 00:01:35;;;;;;;321.30;74.83;;;;;;;2.17;99.99;101019.63;335256;29;1190;-76
2023/01/25 00:01:45;;;;;;;320.83;73.93;;;;;;;2.15;100.00;101017.03;334190;29;1324;-76
2023/01/25 00:01:56;;;;;;;320.07;74.20;;;;;;;2.15;100.00;101011.88;330703;29;2462;-76
2023/01/25 00:02:06;;;;;;;319.35;74.53;;;;;;;2.16;100.00;101015.31;328053;29;2207;-76
2023/01/25 00:02:17;;;;;;;320.40;77.00;;;;;;;2.16;100.00;101018.78;327857;30;1322;-76
2023/01/25 00:02:27;;;;;;;320.45;77.55;;;;;;;2.15;100.00;101011.88;328679;29;2313;-76
2023/01/25 00:02:37;;;;;;;321.30;77.87;;;;;;;2.18;100.00;101022.22;328706;29;1464;-76
2023/01/25 00:02:48;;;;;;;320.08;74.75;;;;;;;2.15;100.00;101011.88;329228;30;843;-76
2023/01/25 00:02:58;;;;;;;320.67;74.47;;;;;;;2.11;99.84;101020.41;325360;30;1322;-76
2023/01/25 00:03:09;;;;;;;320.85;74.78;;;;;;;2.08;100.00;101020.38;326147;29;2023;-76
2023/01/25 00:03:19;;;;;;;320.67;75.33;;;;;;;2.02;100.00;101025.44;323017;30;1215;-76
2023/01/25 00:03:30;;;;;;;321.73;76.00;;;;;;;1.99;100.00;101021.06;324306;30;1368;-76
2023/01/25 00:03:40;;;;;;;321.67;75.73;;;;;;;1.98;100.00;101018.47;324283;30;2890;-76
2023/01/25 00:03:50;;;;;;;321.52;76.50;;;;;;;1.98;100.00;101013.31;321083;30;2997;-75
2023/01/25 00:04:01;;;;;;;319.37;74.93;;;;;;;1.98;100.00;101024.50;322347;30;3026;-76
2023/01/25 00:04:11;;;;;;;321.35;74.88;;;;;;;2.00;100.00;101021.94;319123;30;3309;-76
2023/01/25 00:04:22;;;;;;;323.10;75.03;;;;;;;2.02;100.00;101015.09;314529;30;2915;-76
2023/01/25 00:04:32;;;;;;;322.00;74.45;;;;;;;2.01;100.00;101021.09;314822;31;4747;-75
2023/01/25 00:04:42;;;;;;;318.73;71.73;;;;;;;2.01;100.00;101015.94;317986;30;2774;-75
2023/01/25 00:04:53;;;;;;;316.17;70.10;;;;;;;2.01;100.00;101023.69;316160;30;3530;-78
2023/01/25 00:05:03;;;;;;;316.77;71.60;;;;;;;2.03;100.00;101022.00;314489;31;3026;-76
2023/01/25 00:05:14;;;;;;;320.02;73.50;;;;;;;2.08;100.00;101024.66;311453;31;2273;-76
2023/01/25 00:05:24;;;;;;;320.57;74.90;;;;;;;2.07;100.00;101017.75;310543;31;2982;-75
2023/01/25 00:05:35;;;;;;;320.17;75.03;;;;;;;2.09;100.00;101022.09;309991;31;3511;-75
2023/01/25 00:05:45;;;;;;;316.07;73.00;;;;;;;2.10;100.00;101018.69;311277;31;3695;-75
2023/01/25 00:06:00;;;;;;;318.05;75.03;;;;;;;2.08;100.00;101012.63;311894;31;3898;-75
2023/01/25 00:06:10;;;;;;;321.52;76.72;;;;;;;2.12;100.00;101021.28;314940;31;4426;-81
2023/01/25 00:06:21;;;;;;;320.77;75.83;;;;;;;2.07;100.00;101018.63;313512;31;4950;-76
2023/01/25 00:06:31;;;;;;;322.52;75.22;;;;;;;2.08;100.00;101025.53;311648;31;3331;-76
2023/01/25 00:06:41;;;;;;;320.47;72.17;;;;;;;2.05;100.00;101019.44;311287;31;4112;-76
2023/01/25 00:06:52;;;;;;;321.13;72.78;;;;;;;2.06;100.00;101022.06;310318;30;4015;-76
2023/01/25 00:07:02;;;;;;;320.27;73.70;;;;;;;2.10;100.00;101023.84;319004;30;2790;-76
2023/01/25 00:07:13;;;;;;;320.52;74.15;;;;;;;2.09;100.00;101019.53;315584;31;2918;-76
2023/01/25 00:07:23;;;;;;;321.93;75.30;;;;;;;2.10;100.00;101028.13;313571;31;3887;-76
2023/01/25 00:07:33;;;;;;;319.33;74.03;;;;;;;2.07;100.00;101023.78;310132;31;1214;-76
2023/01/25 00:07:44;;;;;;;319.20;74.95;;;;;;;2.06;100.00;101016.88;304435;32;4411;-76
2023/01/25 00:07:54;;;;;;;318.83;74.30;;;;;;;2.05;100.00;101024.59;304094;31;5179;-76
2023/01/25 00:08:05;;;;;;;320.65;76.70;;;;;;;2.01;100.00;101026.25;304749;31;5358;-76
2023/01/25 00:08:15;;;;;;;324.43;78.20;;;;;;;1.98;100.00;101024.50;307558;32;820;-76
2023/01/25 00:08:26;;;;;;;327.33;79.45;;;;;;;2.05;100.00;101022.03;309948;31;6816;-76
2023/01/25 00:08:37;;;;;;;326.75;77.75;;;;;;;1.99;100.00;101020.22;307585;31;7485;-76
2023/01/25 00:08:50;;;;;;;323.63;76.10;;;;;;;2.01;100.00;101026.25;301902;32;3269;-76
2023/01/25 00:09:01;;;;;;;321.13;75.20;;;;;;;2.01;100.00;101023.69;302519;32;4612;-76
2023/01/25 00:09:12;;;;;;;318.43;73.10;;;;;;;2.06;100.00;101024.63;306526;32;5773;-76
2023/01/25 00:09:22;;;;;;;321.85;74.57;;;;;;;2.09;100.00;101022.09;303182;32;4061;-76
2023/01/25 00:09:33;;;;;;;323.25;75.90;;;;;;;2.11;100.00;101027.28;299339;32;3024;-76
2023/01/25 00:09:43;;;;;;;322.27;76.47;;;;;;;2.08;100.00;101020.38;299042;32;5147;-76
2023/01/25 00:09:54;;;;;;;319.02;75.57;;;;;;;2.06;100.00;101032.38;294220;33;6142;-76
2023/01/25 00:10:04;;;;;;;316.80;74.03;;;;;;;2.06;100.00;101022.06;292309;33;5071;-76
2023/01/25 00:10:15;;;;;;;319.60;74.78;;;;;;;2.05;100.00;101028.06;291142;34;914;-76
2023/01/25 00:10:25;;;;;;;322.40;76.38;;;;;;;1.99;100.00;101020.22;288082;33;9111;-76
2023/01/25 00:10:36;;;;;;;323.17;76.63;;;;;;;1.98;100.00;101028.81;284412;34;8665;-76
2023/01/25 00:12:43;;;;;;;310.56;69.42;;;;;;;1.92;100.00;101028.69;2480671;27;20698;-75
2023/01/25 00:12:55;;;;;;;318.03;70.70;;;;;;;1.94;100.00;101021.84;349353;28;4517;-75
2023/01/25 00:13:05;;;;;;;319.02;71.70;;;;;;;1.91;100.00;101017.50;347451;28;1347;-75
2023/01/25 00:13:16;;;;;;;319.67;72.60;;;;;;;1.94;100.00;101022.72;344877;28;3646;-76
2023/01/25 00:13:26;;;;;;;317.77;73.22;;;;;;;1.96;100.00;101025.31;346268;28;4489;-75
2023/01/25 00:13:36;;;;;;;319.30;75.33;;;;;;;1.98;100.00;101023.63;346736;28;3732;-75
2023/01/25 00:13:50;;;;;;;319.90;75.80;;;;;;;2.00;100.00;101017.66;345189;28;4346;-76
2023/01/25 00:14:00;;;;;;;318.98;73.80;;;;;;;2.02;100.00;101025.44;343470;28;3568;-76
2023/01/25 00:14:11;;;;;;;317.47;72.13;;;;;;;2.00;100.00;101021.94;346187;28;1214;-76
2023/01/25 00:14:22;;;;;;;315.15;70.30;;;;;;;2.03;100.00;101022.00;346982;28;4666;-75
2023/01/25 00:14:32;;;;;;;315.48;70.43;;;;;;;2.07;100.00;101028.09;348539;28;2912;-76
2023/01/25 00:14:43;;;;;;;316.30;70.70;;;;;;;2.08;100.00;101025.53;347144;28;3230;-76
2023/01/25 00:14:53;;;;;;;316.10;71.23;;;;;;;2.08;100.00;101025.53;346060;28;1580;-77
2023/01/25 00:15:06;;;;;;;316.58;71.32;;;;;;;2.05;100.00;101030.63;344652;28;3613;-76
2023/01/25 00:15:16;;;;;;;316.45;71.18;;;;;;;2.07;100.00;101023.78;346178;28;976;-76
2023/01/25 00:15:26;;;;;;;318.52;72.00;;;;;;;2.08;100.00;101029.81;343770;28;4602;-75
2023/01/25 00:15:39;;;;;;;319.23;72.30;;;;;;;2.09;100.00;101029.84;346097;28;1305;-76
2023/01/25 00:15:49;;;;;;;319.63;73.35;;;;;;;2.06;100.00;101021.19;345446;28;3526;-76
2023/01/25 00:16:03;;;;;;;319.23;74.10;;;;;;;2.03;100.00;101027.16;348671;28;1301;-76
2023/01/25 00:16:13;;;;;;;320.00;74.15;;;;;;;2.05;100.00;101027.19;345068;28;2411;-76
2023/01/25 00:16:24;;;;;;;320.30;73.30;;;;;;;2.08;100.00;101025.53;342879;28;3527;-75
2023/01/25 00:16:35;;;;;;;319.53;74.47;;;;;;;2.08;100.00;101022.94;342832;28;4734;-77
2023/01/25 00:16:45;;;;;;;319.17;73.05;;;;;;;2.07;100.00;101028.09;343984;28;3618;-76
2023/01/25 00:16:55;;;;;;;318.27;73.27;;;;;;;2.04;100.00;101023.75;343430;28;4698;-75
2023/01/25 00:17:06;;;;;;;318.80;71.97;;;;;;;2.04;100.00;101021.16;344200;28;3556;-76
2023/01/25 00:17:16;;;;;;;322.47;74.53;;;;;;;2.06;100.00;101024.63;340202;28;3039;-76
2023/01/25 00:17:27;;;;;;;323.95;74.72;;;;;;;2.08;100.00;101027.25;340481;29;3707;-76
2023/01/25 00:17:37;;;;;;;323.97;75.17;;;;;;;2.09;100.00;101022.09;342550;28;4449;-76
2023/01/25 00:17:47;;;;;;;321.75;72.70;;;;;;;2.11;100.00;101030.75;345322;28;3527;-76
2023/01/25 00:17:58;;;;;;;320.60;72.30;;;;;;;2.15;100.00;101022.19;341841;28;3944;-76
2023/01/25 00:18:08;;;;;;;321.35;72.53;;;;;;;2.18;100.00;101026.50;343497;28;2067;-76
2023/01/25 00:18:19;;;;;;;323.40;75.40;;;;;;;2.19;100.00;101023.97;342443;28;4077;-76
2023/01/25 00:18:29;;;;;;;324.33;76.57;;;;;;;2.18;100.00;101017.06;342307;28;3441;-75
2023/01/25 00:18:40;;;;;;;321.63;76.38;;;;;;;2.16;100.00;101023.94;339824;28;4530;-75
2023/01/25 00:18:50;;;;;;;318.57;73.87;;;;;;;2.11;100.00;101030.75;338965;28;3879;-76
2023/01/25 00:19:00;;;;;;;318.83;73.03;;;;;;;2.10;100.00;101020.38;341085;28;4524;-77
2023/01/25 00:19:11;;;;;;;321.50;74.13;;;;;;;2.12;100.00;101021.28;342808;28;2972;-76
2023/01/25 00:19:22;;;;;;;324.47;77.50;;;;;;;2.12;100.00;101017.00;343515;28;1151;-76
2023/01/25 00:19:33;;;;;;;324.48;76.75;;;;;;;2.10;100.00;101026.44;340922;28;2743;-76
2023/01/25 00:19:43;;;;;;;320.73;74.30;;;;;;;2.13;100.00;101018.72;344562;28;3453;-76
2023/01/25 00:19:54;;;;;;;320.13;72.55;;;;;;;2.11;100.00;101020.41;343307;28;4567;-75
2023/01/25 00:20:04;;;;;;;320.90;72.33;;;;;;;2.08;100.00;101024.66;347401;28;1055;-75
2023/01/25 00:20:15;;;;;;;320.75;72.18;;;;;;;2.03;100.00;101022.00;343152;28;4213;-76
2023/01/25 00:20:25;;;;;;;322.65;73.47;;;;;;;2.06;100.00;101026.34;345432;28;4839;-76
2023/01/25 00:20:36;;;;;;;325.10;75.73;;;;;;;2.06;100.00;101021.19;341024;28;3174;-75
2023/01/25 00:20:46;;;;;;;326.00;76.70;;;;;;;2.08;100.00;101025.53;342363;28;4648;-75
2023/01/25 00:20:57;;;;;;;325.33;76.23;;;;;;;2.10;100.00;101018.69;341602;28;3414;-75
2023/01/25 00:21:11;;;;;;;323.13;75.40;;;;;;;2.14;100.00;101020.47;338070;28;3091;-75
2023/01/25 00:21:23;;;;;;;318.83;72.78;;;;;;;2.11;100.00;101023.00;336760;29;3763;-75
2023/01/25 00:21:34;;;;;;;317.20;73.08;;;;;;;2.09;100.00;101019.53;335341;29;2774;-75
2023/01/25 00:21:44;;;;;;;319.00;73.83;;;;;;;2.10;100.00;101018.69;335810;29;4313;-76
2023/01/25 00:21:55;;;;;;;320.83;74.07;;;;;;;2.12;100.00;101022.16;337848;29;1245;-76
2023/01/25 00:22:05;;;;;;;323.93;75.20;;;;;;;2.10;100.00;101018.69;334179;29;3659;-75
2023/01/25 00:22:15;;;;;;;321.52;73.30;;;;;;;2.09;100.00;101016.94;334780;29;3387;-75
2023/01/25 00:22:26;;;;;;;322.13;73.67;;;;;;;2.10;100.00;101017.81;334557;29;3616;-75
2023/01/25 00:22:36;;;;;;;321.40;75.13;;;;;;;2.07;100.00;101017.75;337148;29;2943;-75
2023/01/25 00:22:47;;;;;;;324.57;77.20;;;;;;;2.09;100.00;101019.53;333621;29;4538;-75
2023/01/25 00:22:57;;;;;;;324.15;78.55;;;;;;;2.08;100.00;101014.34;331335;29;2647;-75
2023/01/25 00:23:07;;;;;;;323.87;78.23;;;;;;;2.09;100.00;101016.94;331254;29;3659;-74
2023/01/25 00:23:18;;;;;;;324.30;78.10;;;;;;;2.08;100.00;101017.78;329235;29;4944;-75
2023/01/25 00:23:28;;;;;;;324.00;76.83;;;;;;;2.04;100.00;101018.56;322263;30;3621;-75
2023/01/25 00:23:38;;;;;;;323.03;76.40;;;;;;;2.04;100.00;101023.75;328519;29;4685;-75
2023/01/25 00:23:49;;;;;;;323.02;75.88;;;;;;;2.05;100.00;101024.59;331813;29;3696;-75
2023/01/25 00:23:59;;;;;;;322.77;75.03;;;;;;;2.03;100.00;101016.84;327681;30;4050;-77
2023/01/25 00:24:13;;;;;;;321.88;73.65;;;;;;;1.99;100.00;101018.50;328696;29;982;-76
2023/01/25 00:24:24;;;;;;;319.60;73.47;;;;;;;1.98;100.00;101014.19;328472;29;5282;-76
2023/01/25 00:24:35;;;;;;;321.23;74.38;;;;;;;2.00;100.00;101017.66;326406;30;1739;-76
2023/01/25 00:24:45;;;;;;;320.77;73.80;;;;;;;1.97;100.00;101016.72;325485;30;1353;-76
2023/01/25 00:24:55;;;;;;;321.98;73.63;;;;;;;1.97;100.00;101024.47;324595;30;1871;-76
2023/01/25 00:25:06;;;;;;;320.93;74.37;;;;;;;1.99;100.00;101021.06;323013;30;1974;-76
2023/01/25 00:25:16;;;;;;;319.90;73.95;;;;;;;1.98;100.00;101018.47;324236;30;966;-76
2023/01/25 00:25:27;;;;;;;317.03;72.20;;;;;;;1.94;100.00;101020.13;317070;31;1226;-76
2023/01/25 00:25:37;;;;;;;318.73;71.67;;;;;;;1.94;100.00;101021.84;319744;30;2273;-75
2023/01/25 00:25:48;;;;;;;319.67;73.27;;;;;;;1.95;100.00;101021.88;319462;30;2371;-76
2023/01/25 00:25:58;;;;;;;319.08;74.22;;;;;;;1.93;100.00;101025.28;321857;30;1365;-76
2023/01/25 00:26:08;;;;;;;319.20;73.63;;;;;;;1.94;100.00;101027.00;319275;30;1569;-75
2023/01/25 00:26:19;;;;;;;321.17;73.70;;;;;;;1.96;100.00;101030.47;320582;30;1152;-75
2023/01/25 00:26:30;;;;;;;322.07;74.40;;;;;;;1.97;100.00;101024.47;317283;31;1263;-76
2023/01/25 00:26:42;;;;;;;325.17;74.63;;;;;;;1.99;100.00;101022.78;319533;30;1675;-76
2023/01/25 00:26:53;;;;;;;324.92;74.32;;;;;;;1.99;100.00;101020.22;317464;30;2532;-76
2023/01/25 00:27:03;;;;;;;325.97;74.63;;;;;;;2.00;100.00;101020.22;316353;30;2837;-75
2023/01/25 00:27:13;;;;;;;322.33;76.47;;;;;;;2.02;100.00;101020.25;315125;31;834;-76
2023/01/25 00:27:24;;;;;;;323.60;76.60;;;;;;;2.02;100.00;101020.25;314289;31;2799;-75
2023/01/25 00:27:34;;;;;;;322.88;76.85;;;;;;;2.05;100.00;101025.47;313585;31;2825;-76
2023/01/25 00:27:45;;;;;;;321.17;75.17;;;;;;;2.10;100.00;101017.81;313775;31;974;-75
2023/01/25 00:27:55;;;;;;;320.33;74.82;;;;;;;2.15;100.00;101027.38;316002;30;2707;-75
2023/01/25 00:28:06;;;;;;;319.97;73.53;;;;;;;2.14;100.00;101020.47;313921;31;2554;-76
2023/01/25 00:28:16;;;;;;;319.48;72.38;;;;;;;2.12;100.00;101022.16;309335;31;1241;-76
2023/01/25 00:28:26;;;;;;;318.70;71.43;;;;;;;2.10;100.00;101017.81;312216;31;2141;-76
2023/01/25 00:28:37;;;;;;;318.77;71.68;;;;;;;2.07;100.00;101021.22;310977;31;2076;-75
2023/01/25 00:28:51;;;;;;;318.77;72.73;;;;;;;2.05;100.00;101025.47;309680;31;2725;-75
2023/01/25 00:29:01;;;;;;;323.77;74.72;;;;;;;2.06;100.00;101021.19;309339;31;1423;-75
2023/01/25 00:29:12;;;;;;;325.00;74.38;;;;;;;2.07;100.00;101018.63;303085;32;1038;-75
2023/01/25 00:29:23;;;;;;;325.75;74.53;;;;;;;2.05;100.00;101024.59;303739;32;4113;-75
2023/01/25 00:29:33;;;;;;;321.85;74.00;;;;;;;2.07;100.00;101022.91;301669;32;4251;-75
2023/01/25 00:29:44;;;;;;;324.57;76.13;;;;;;;2.04;100.00;101023.75;300800;32;1439;-76
2023/01/25 00:29:54;;;;;;;326.25;76.28;;;;;;;2.04;100.00;101025.44;295690;32;4571;-75
2023/01/25 00:30:05;;;;;;;325.83;77.10;;;;;;;2.03;100.00;101024.59;296083;32;4228;-75
2023/01/25 00:30:15;;;;;;;323.70;76.15;;;;;;;2.04;100.00;101018.56;297936;33;1033;-75
2023/01/25 00:30:26;;;;;;;322.77;76.35;;;;;;;2.04;100.00;101025.44;294387;33;3860;-75
2023/01/25 00:30:36;;;;;;;321.90;74.87;;;;;;;2.04;100.00;101028.91;292429;33;4612;-75
2023/01/25 00:30:47;;;;;;;321.90;75.18;;;;;;;2.00;100.00;101012.50;293590;33;3242;-75
2023/01/25 00:31:01;;;;;;;326.57;77.80;;;;;;;2.00;100.00;101017.66;290278;34;2905;-75
2023/01/25 00:31:16;;;;;;;326.23;78.22;;;;;;;1.98;100.00;101021.06;293648;33;4223;-75
2023/01/25 00:31:32;;;;;;;321.10;75.97;;;;;;;2.01;100.00;101018.53;285947;33;5282;-75
2023/01/25 00:32:04;;;;;;;322.30;75.03;;;;;;;2.03;100.00;101022.00;283256;34;2902;-75
2023/01/25 00:32:14;;;;;;;321.33;74.55;;;;;;;2.06;100.00;101022.06;280025;35;1351;-77
2023/01/25 00:32:36;;;;;;;318.93;72.17;;;;;;;2.10;100.00;101029.00;277532;34;6020;-76
2023/01/25 00:32:52;;;;;;;318.92;73.38;;;;;;;2.03;100.00;101011.66;280094;35;1307;-76
2023/01/25 00:34:47;;;;;;;313.74;70.56;;;;;;;2.09;100.00;101016.94;2491436;27;20275;-76
2023/01/25 00:34:57;;;;;;;318.23;71.97;;;;;;;2.09;100.00;101016.06;349031;28;2906;-76
2023/01/25 00:35:11;;;;;;;318.58;71.97;;;;;;;2.09;100.00;101014.34;346144;28;1409;-76
2023/01/25 00:35:21;;;;;;;316.70;70.65;;;;;;;2.10;100.00;101017.81;346821;28;1711;-75
2023/01/25 00:35:31;;;;;;;320.95;74.13;;;;;;;2.09;100.00;101021.22;347073;28;4021;-75
2023/01/25 00:35:44;;;;;;;322.87;76.57;;;;;;;2.10;100.00;101018.69;347133;28;3245;-75
2023/01/25 00:35:55;;;;;;;325.02;78.72;;;;;;;2.08;100.00;101015.19;345983;28;1650;-75
2023/01/25 00:36:20;;;;;;;321.40;76.32;;;;;;;2.09;100.00;101019.53;346044;28;2893;-77
2023/01/25 00:36:36;;;;;;;316.33;70.05;;;;;;;2.08;100.00;101015.19;344487;28;3104;-75
2023/01/25 00:36:47;;;;;;;317.75;71.85;;;;;;;2.07;100.00;101018.63;345225;28;3709;-78
2023/01/25 00:37:01;;;;;;;318.33;73.67;;;;;;;2.13;100.00;101018.72;345775;28;2784;-76
2023/01/25 00:37:13;;;;;;;318.70;73.78;;;;;;;2.14;100.00;101025.63;342022;28;4653;-75
2023/01/25 00:37:23;;;;;;;320.10;73.65;;;;;;;2.18;100.00;101017.06;344130;28;3480;-75
2023/01/25 00:37:41;;;;;;;320.35;75.13;;;;;;;2.20;100.00;101025.69;341417;28;4698;-75
2023/01/25 00:37:52;;;;;;;320.08;74.53;;;;;;;2.20;100.00;101017.06;343303;28;3777;-75
2023/01/25 00:38:02;;;;;;;320.53;75.33;;;;;;;2.19;100.00;101026.53;344814;28;2997;-75
2023/01/25 00:38:34;;;;;;;320.88;75.80;;;;;;;2.13;100.00;101018.72;343924;28;4030;-75
2023/01/25 00:38:45;;;;;;;320.50;74.60;;;;;;;2.17;100.00;101015.31;341817;28;1484;-75
2023/01/25 00:38:56;;;;;;;319.43;74.57;;;;;;;2.16;100.00;101023.94;339442;28;4089;-75
2023/01/25 00:39:10;;;;;;;319.20;74.03;;;;;;;2.14;100.00;101027.34;340642;29;1347;-76
2023/01/25 00:39:20;;;;;;;322.13;74.82;;;;;;;2.09;100.00;101024.69;339422;29;4332;-74
2023/01/25 00:39:31;;;;;;;321.73;74.13;;;;;;;2.06;100.00;101023.75;338719;29;3817;-76
2023/01/25 00:39:41;;;;;;;320.10;72.43;;;;;;;2.06;100.00;101018.59;339548;29;4440;-75
2023/01/25 00:39:51;;;;;;;318.93;71.57;;;;;;;2.02;100.00;101017.69;338047;29;4080;-75
2023/01/25 00:40:02;;;;;;;321.52;72.93;;;;;;;1.97;100.00;101020.19;341801;28;4758;-75
2023/01/25 00:40:13;;;;;;;323.27;74.07;;;;;;;1.95;100.00;101023.59;339005;28;4153;-75
2023/01/25 00:40:23;;;;;;;323.67;74.32;;;;;;;1.91;100.00;101021.78;340498;29;3075;-75
2023/01/25 00:40:34;;;;;;;319.07;74.30;;;;;;;1.88;100.00;101017.44;342570;28;2504;-76
2023/01/25 00:40:44;;;;;;;319.10;74.17;;;;;;;1.90;100.00;101020.06;343280;28;4385;-76
2023/01/25 00:40:54;;;;;;;319.20;73.50;;;;;;;1.90;100.00;101018.34;341980;28;4154;-76
2023/01/25 00:41:06;;;;;;;319.70;73.70;;;;;;;1.91;100.00;101021.78;339881;28;4556;-76
2023/01/25 00:41:17;;;;;;;318.58;71.90;;;;;;;1.89;100.00;101018.31;334713;29;3519;-74
2023/01/25 00:41:27;;;;;;;318.03;71.03;;;;;;;1.92;100.00;101018.38;335918;29;3044;-74
2023/01/25 00:41:38;;;;;;;319.30;72.23;;;;;;;1.96;100.00;101031.34;335392;29;1343;-76
2023/01/25 00:41:49;;;;;;;320.98;73.22;;;;;;;1.97;100.00;101021.91;336250;29;1651;-76
2023/01/25 00:41:59;;;;;;;322.33;73.30;;;;;;;1.98;100.00;101023.63;336888;29;868;-76
2023/01/25 00:42:10;;;;;;;323.07;73.27;;;;;;;1.97;100.00;101016.72;336817;29;1189;-76
2023/01/25 00:42:20;;;;;;;323.88;75.20;;;;;;;1.96;100.00;101020.16;337581;29;1356;-76
2023/01/25 00:42:30;;;;;;;322.60;75.60;;;;;;;1.96;100.00;101020.16;333685;29;1254;-76
2023/01/25 00:42:41;;;;;;;324.63;77.47;;;;;;;1.95;100.00;101021.00;332873;29;862;-75
2023/01/25 00:42:51;;;;;;;323.05;75.38;;;;;;;1.95;100.00;101018.41;332830;29;1377;-76
2023/01/25 00:43:02;;;;;;;322.00;75.30;;;;;;;1.94;100.00;101019.25;332668;29;1409;-75
2023/01/25 00:43:13;;;;;;;318.63;72.80;;;;;;;1.96;100.00;101017.56;331625;29;1307;-75
2023/01/25 00:43:24;;;;;;;319.77;72.68;;;;;;;1.96;100.00;101020.16;332682;29;1613;-77
2023/01/25 00:43:34;;;;;;;323.05;73.80;;;;;;;1.99;100.00;101020.22;330739;29;1904;-76
2023/01/25 00:43:44;;;;;;;323.70;74.07;;;;;;;1.97;100.00;101027.06;331552;29;952;-76
2023/01/25 00:43:55;;;;;;;323.63;75.18;;;;;;;1.97;100.00;101021.91;329036;30;1221;-76
2023/01/25 00:44:06;;;;;;;323.60;75.57;;;;;;;1.99;100.00;101021.06;332194;29;1372;-76
2023/01/25 00:44:16;;;;;;;320.65;74.97;;;;;;;1.99;100.00;101027.97;331054;29;1381;-76
2023/01/25 00:44:26;;;;;;;321.17;74.67;;;;;;;2.01;100.00;101026.25;327947;30;1152;-76
2023/01/25 00:44:37;;;;;;;319.27;72.95;;;;;;;1.99;100.00;101026.25;330269;29;1543;-76
2023/01/25 00:44:48;;;;;;;320.02;73.78;;;;;;;2.01;100.00;101018.53;332734;29;1599;-76
2023/01/25 00:44:58;;;;;;;317.20;72.60;;;;;;;1.98;100.00;101019.34;333017;29;836;-76
2023/01/25 00:45:10;;;;;;;318.60;73.53;;;;;;;1.98;100.00;101024.50;330190;29;1788;-76
2023/01/25 00:45:20;;;;;;;317.95;72.85;;;;;;;1.98;100.00;101023.63;328441;29;2103;-76
2023/01/25 00:45:30;;;;;;;317.77;72.55;;;;;;;1.96;100.00;101033.06;327747;29;2095;-76
2023/01/25 00:45:41;;;;;;;315.80;71.43;;;;;;;1.97;100.00;101027.06;325615;30;916;-76
2023/01/25 00:45:51;;;;;;;316.52;71.40;;;;;;;1.97;100.00;101027.94;327177;30;1632;-76
2023/01/25 00:46:02;;;;;;;316.90;71.83;;;;;;;1.98;100.00;101023.63;327183;30;1363;-76
2023/01/25 00:46:16;;;;;;;317.63;71.75;;;;;;;1.98;100.00;101023.63;327849;30;1228;-76
2023/01/25 00:46:26;;;;;;;319.13;71.47;;;;;;;1.99;100.00;101022.78;329124;30;915;-76
2023/01/25 00:46:37;;;;;;;319.80;72.65;;;;;;;2.03;100.00;101026.28;328238;30;1864;-76
2023/01/25 00:46:47;;;;;;;318.70;72.97;;;;;;;2.01;100.00;101026.25;326758;30;2122;-76
2023/01/25 00:46:57;;;;;;;317.42;73.57;;;;;;;2.04;100.00;101021.16;327891;30;937;-76
2023/01/25 00:47:11;;;;;;;319.20;73.93;;;;;;;2.08;100.00;101019.50;329271;29;2114;-76
2023/01/25 00:47:21;;;;;;;318.38;72.82;;;;;;;2.10;100.00;101023.84;328795;29;2360;-76
2023/01/25 00:47:31;;;;;;;316.83;71.22;;;;;;;2.09;100.00;101026.41;328962;29;2497;-76
2023/01/25 00:47:42;;;;;;;320.53;72.70;;;;;;;2.08;100.00;101033.28;334456;29;874;-76
2023/01/25 00:47:55;;;;;;;323.00;74.18;;;;;;;2.06;100.00;101026.34;329060;29;2709;-76
2023/01/25 00:48:05;;;;;;;324.88;75.60;;;;;;;2.06;100.00;101029.81;327976;30;1838;-76
2023/01/25 00:48:16;;;;;;;319.63;72.43;;;;;;;2.05;100.00;101030.63;329102;29;950;-76
2023/01/25 00:48:26;;;;;;;319.40;72.47;;;;;;;2.03;100.00;101022.00;329200;30;1253;-76
2023/01/25 00:48:36;;;;;;;318.77;72.50;;;;;;;2.01;100.00;101023.69;325868;30;1897;-76
2023/01/25 00:48:47;;;;;;;320.52;72.93;;;;;;;2.03;100.00;101027.16;324430;30;2524;-75
2023/01/25 00:48:58;;;;;;;318.70;71.50;;;;;;;2.04;100.00;101028.91;323082;30;1224;-75
2023/01/25 00:49:25;;;;;;;320.42;72.70;;;;;;;2.04;100.00;101023.75;323061;30;2977;-75
2023/01/25 00:49:36;;;;;;;319.45;73.63;;;;;;;2.08;100.00;101022.94;317060;30;4858;-76
2023/01/25 00:49:47;;;;;;;321.17;74.00;;;;;;;2.10;100.00;101018.69;314636;31;3382;-76
2023/01/25 00:49:57;;;;;;;322.77;74.70;;;;;;;2.11;100.00;101024.72;314096;31;916;-77
2023/01/25 00:50:08;;;;;;;320.93;73.33;;;;;;;2.11;100.00;101024.72;313191;31;3247;-77
2023/01/25 00:50:18;;;;;;;317.58;71.63;;;;;;;2.04;100.00;101026.31;314036;31;3667;-75
2023/01/25 00:50:29;;;;;;;315.60;72.07;;;;;;;2.00;100.00;101027.13;310821;31;3966;-75
2023/01/25 00:50:39;;;;;;;319.35;74.07;;;;;;;1.97;100.00;101021.91;306978;32;4697;-76
2023/01/25 00:50:49;;;;;;;325.60;80.00;;;;;;;1.95;100.00;101028.75;304537;32;3134;-75
2023/01/25 00:51:00;;;;;;;327.33;78.68;;;;;;;1.96;100.00;101021.03;305634;31;3951;-75
2023/01/25 00:51:11;;;;;;;325.10;78.07;;;;;;;2.00;100.00;101024.53;306911;32;848;-76
2023/01/25 00:51:22;;;;;;;321.70;75.93;;;;;;;2.01;100.00;101023.69;305672;31;4923;-77
2023/01/25 00:51:32;;;;;;;321.77;78.18;;;;;;;2.01;100.00;101026.25;303179;32;4384;-75
2023/01/25 00:51:42;;;;;;;323.77;79.35;;;;;;;1.98;100.00;101023.63;306393;32;1369;-76
2023/01/25 00:51:54;;;;;;;325.97;79.37;;;;;;;1.98;100.00;101021.06;305210;32;4567;-75
2023/01/25 00:52:04;;;;;;;324.27;77.28;;;;;;;1.97;100.00;101024.47;303982;32;4532;-75
2023/01/25 00:52:15;;;;;;;321.63;76.07;;;;;;;1.99;100.00;101025.38;302549;32;4521;-75
2023/01/25 00:52:27;;;;;;;320.10;74.43;;;;;;;2.01;100.00;101021.09;297085;32;4600;-75
2023/01/25 00:52:38;;;;;;;319.85;74.80;;;;;;;2.03;100.00;101021.13;299926;32;3580;-77
2023/01/25 00:52:49;;;;;;;323.08;76.43;;;;;;;2.03;100.00;101026.28;299839;32;2498;-77
2023/01/25 00:52:59;;;;;;;322.30;75.88;;;;;;;2.03;100.00;101027.16;295590;33;4052;-76
2023/01/25 00:53:09;;;;;;;322.43;76.10;;;;;;;2.03;100.00;101026.28;292597;33;998;-76
2023/01/25 00:53:20;;;;;;;319.30;74.00;;;;;;;1.97;100.00;101027.06;292005;33;5734;-76
2023/01/25 00:53:30;;;;;;;318.07;73.57;;;;;;;1.94;100.00;101024.44;291921;33;6750;-76
2023/01/25 00:53:41;;;;;;;319.67;74.68;;;;;;;1.94;100.00;101022.72;292563;33;3084;-76
2023/01/25 00:53:51;;;;;;;319.77;75.33;;;;;;;1.92;100.00;101023.53;294605;33;5880;-76
2023/01/25 00:54:01;;;;;;;320.48;74.78;;;;;;;1.94;100.00;101027.00;297014;32;5792;-76
2023/01/25 00:54:12;;;;;;;318.00;72.90;;;;;;;1.97;100.00;101025.34;298994;33;824;-76
2023/01/25 00:54:22;;;;;;;316.57;71.97;;;;;;;2.01;100.00;101028.84;296619;32;5991;-76
2023/01/25 00:54:33;;;;;;;315.75;72.10;;;;;;;2.04;100.00;101026.31;293568;33;6434;-74
2023/01/25 00:54:43;;;;;;;318.10;73.90;;;;;;;2.06;100.00;101027.22;292038;33;1310;-75
2023/01/25 00:54:54;;;;;;;321.87;74.97;;;;;;;2.10;100.00;101030.72;295528;33;5066;-76